sensor_id;sensor_type;location;lat;lon;timestamp;P1;durP1;ratioP1;P2;durP2;ratioP2
52734;SDS011;38631;47.572;10.704;2023-05-07T00:00:52;3.20;;;2.67;;
52734;SDS011;38631;47.572;10.704;2023-05-07T00:03:17;3.78;;;3.40;;
52734;SDS011;38631;47.572;10.704;2023-05-07T00:05:43;3.40;;;2.95;;
52734;SDS011;38631;47.572;10.704;2023-05-07T00:08:09;3.97;;;3.22;;
52734;SDS011;38631;47.572;10.704;2023-05-07T00:10:35;3.17;;;2.67;;
52734;SDS011;38631;47.572;10.704;2023-05-07T00:13:00;5.43;;;3.70;;
52734;SDS011;38631;47.572;10.704;2023-05-07T00:15:25;2.97;;;2.67;;
52734;SDS011;38631;47.572;10.704;2023-05-07T00:17:51;3.70;;;2.92;;
52734;SDS011;38631;47.572;10.704;2023-05-07T00:20:16;3.22;;;2.50;;
52734;SDS011;38631;47.572;10.704;2023-05-07T00:22:42;3.97;;;3.25;;
52734;SDS011;38631;47.572;10.704;2023-05-07T00:25:07;4.93;;;3.05;;
52734;SDS011;38631;47.572;10.704;2023-05-07T00:27:33;3.08;;;2.72;;
52734;SDS011;38631;47.572;10.704;2023-05-07T00:29:58;3.42;;;2.58;;
52734;SDS011;38631;47.572;10.704;2023-05-07T00:32:23;4.10;;;3.30;;
52734;SDS011;38631;47.572;10.704;2023-05-07T00:34:49;3.08;;;2.70;;
52734;SDS011;38631;47.572;10.704;2023-05-07T00:37:15;3.42;;;2.50;;
52734;SDS011;38631;47.572;10.704;2023-05-07T00:39:41;4.10;;;2.72;;
52734;SDS011;38631;47.572;10.704;2023-05-07T00:42:06;5.10;;;2.78;;
52734;SDS011;38631;47.572;10.704;2023-05-07T00:44:33;3.83;;;3.05;;
52734;SDS011;38631;47.572;10.704;2023-05-07T00:46:58;3.33;;;2.80;;
52734;SDS011;38631;47.572;10.704;2023-05-07T00:49:34;3.70;;;3.13;;
52734;SDS011;38631;47.572;10.704;2023-05-07T00:52:07;3.92;;;2.80;;
52734;SDS011;38631;47.572;10.704;2023-05-07T00:54:34;3.55;;;2.67;;
52734;SDS011;38631;47.572;10.704;2023-05-07T00:56:59;6.40;;;2.50;;
52734;SDS011;38631;47.572;10.704;2023-05-07T00:59:26;3.10;;;2.80;;
52734;SDS011;38631;47.572;10.704;2023-05-07T01:01:52;5.22;;;2.70;;
52734;SDS011;38631;47.572;10.704;2023-05-07T01:04:17;3.33;;;2.65;;
52734;SDS011;38631;47.572;10.704;2023-05-07T01:06:43;3.30;;;2.50;;
52734;SDS011;38631;47.572;10.704;2023-05-07T01:09:10;3.30;;;2.72;;
52734;SDS011;38631;47.572;10.704;2023-05-07T01:11:35;3.63;;;3.03;;
52734;SDS011;38631;47.572;10.704;2023-05-07T01:14:01;3.78;;;2.78;;
52734;SDS011;38631;47.572;10.704;2023-05-07T01:16:27;2.88;;;2.40;;
52734;SDS011;38631;47.572;10.704;2023-05-07T01:18:52;2.67;;;2.40;;
52734;SDS011;38631;47.572;10.704;2023-05-07T01:21:18;3.00;;;2.70;;
52734;SDS011;38631;47.572;10.704;2023-05-07T01:23:51;3.03;;;2.40;;
52734;SDS011;38631;47.572;10.704;2023-05-07T01:26:17;4.03;;;2.72;;
52734;SDS011;38631;47.572;10.704;2023-05-07T01:28:44;3.13;;;2.50;;
52734;SDS011;38631;47.572;10.704;2023-05-07T01:31:10;3.45;;;2.58;;
52734;SDS011;38631;47.572;10.704;2023-05-07T01:33:37;4.20;;;2.88;;
52734;SDS011;38631;47.572;10.704;2023-05-07T01:36:05;3.28;;;2.40;;
52734;SDS011;38631;47.572;10.704;2023-05-07T01:38:33;3.38;;;2.58;;
52734;SDS011;38631;47.572;10.704;2023-05-07T01:41:00;3.78;;;2.78;;
52734;SDS011;38631;47.572;10.704;2023-05-07T01:43:26;3.33;;;2.85;;
52734;SDS011;38631;47.572;10.704;2023-05-07T01:45:52;2.55;;;2.35;;
52734;SDS011;38631;47.572;10.704;2023-05-07T01:48:17;3.83;;;2.67;;
52734;SDS011;38631;47.572;10.704;2023-05-07T01:50:43;3.05;;;2.63;;
52734;SDS011;38631;47.572;10.704;2023-05-07T01:53:09;4.07;;;2.35;;
52734;SDS011;38631;47.572;10.704;2023-05-07T01:55:34;3.45;;;2.20;;
52734;SDS011;38631;47.572;10.704;2023-05-07T01:58:01;5.20;;;3.13;;
52734;SDS011;38631;47.572;10.704;2023-05-07T02:00:27;3.03;;;2.30;;
52734;SDS011;38631;47.572;10.704;2023-05-07T02:02:52;4.95;;;2.47;;
52734;SDS011;38631;47.572;10.704;2023-05-07T02:05:18;3.13;;;2.30;;
52734;SDS011;38631;47.572;10.704;2023-05-07T02:07:43;2.72;;;2.13;;
52734;SDS011;38631;47.572;10.704;2023-05-07T02:10:09;4.40;;;2.75;;
52734;SDS011;38631;47.572;10.704;2023-05-07T02:12:35;4.07;;;3.00;;
52734;SDS011;38631;47.572;10.704;2023-05-07T02:15:00;2.97;;;2.65;;
52734;SDS011;38631;47.572;10.704;2023-05-07T02:17:25;3.25;;;2.20;;
52734;SDS011;38631;47.572;10.704;2023-05-07T02:19:51;3.42;;;2.10;;
52734;SDS011;38631;47.572;10.704;2023-05-07T02:22:16;2.63;;;2.17;;
52734;SDS011;38631;47.572;10.704;2023-05-07T02:24:42;3.63;;;2.40;;
52734;SDS011;38631;47.572;10.704;2023-05-07T02:27:09;3.00;;;2.33;;
52734;SDS011;38631;47.572;10.704;2023-05-07T02:29:35;5.45;;;2.55;;
52734;SDS011;38631;47.572;10.704;2023-05-07T02:32:00;4.45;;;2.60;;
52734;SDS011;38631;47.572;10.704;2023-05-07T02:34:26;2.70;;;2.05;;
52734;SDS011;38631;47.572;10.704;2023-05-07T02:36:51;3.53;;;2.38;;
52734;SDS011;38631;47.572;10.704;2023-05-07T02:39:17;3.13;;;2.03;;
52734;SDS011;38631;47.572;10.704;2023-05-07T02:41:42;3.53;;;2.53;;
52734;SDS011;38631;47.572;10.704;2023-05-07T02:44:07;3.78;;;2.45;;
52734;SDS011;38631;47.572;10.704;2023-05-07T02:46:34;2.75;;;2.10;;
52734;SDS011;38631;47.572;10.704;2023-05-07T02:48:59;3.40;;;2.10;;
52734;SDS011;38631;47.572;10.704;2023-05-07T02:51:25;2.95;;;2.20;;
52734;SDS011;38631;47.572;10.704;2023-05-07T02:53:51;2.72;;;2.10;;
52734;SDS011;38631;47.572;10.704;2023-05-07T02:56:16;2.88;;;1.98;;
52734;SDS011;38631;47.572;10.704;2023-05-07T02:58:41;2.40;;;1.83;;
52734;SDS011;38631;47.572;10.704;2023-05-07T03:01:07;3.88;;;1.80;;
52734;SDS011;38631;47.572;10.704;2023-05-07T03:03:33;3.13;;;2.15;;
52734;SDS011;38631;47.572;10.704;2023-05-07T03:05:58;3.53;;;1.85;;
52734;SDS011;38631;47.572;10.704;2023-05-07T03:08:23;3.55;;;1.98;;
52734;SDS011;38631;47.572;10.704;2023-05-07T03:10:49;2.63;;;2.10;;
52734;SDS011;38631;47.572;10.704;2023-05-07T03:13:15;2.90;;;2.00;;
52734;SDS011;38631;47.572;10.704;2023-05-07T03:15:40;3.63;;;2.00;;
52734;SDS011;38631;47.572;10.704;2023-05-07T03:18:06;4.97;;;2.90;;
52734;SDS011;38631;47.572;10.704;2023-05-07T03:20:31;2.00;;;1.80;;
52734;SDS011;38631;47.572;10.704;2023-05-07T03:22:57;2.33;;;1.88;;
52734;SDS011;38631;47.572;10.704;2023-05-07T03:25:22;3.20;;;1.70;;
52734;SDS011;38631;47.572;10.704;2023-05-07T03:27:48;2.50;;;1.77;;
52734;SDS011;38631;47.572;10.704;2023-05-07T03:30:13;2.55;;;2.03;;
52734;SDS011;38631;47.572;10.704;2023-05-07T03:32:39;3.22;;;1.70;;
52734;SDS011;38631;47.572;10.704;2023-05-07T03:35:04;2.40;;;2.00;;
52734;SDS011;38631;47.572;10.704;2023-05-07T03:37:30;3.42;;;1.85;;
52734;SDS011;38631;47.572;10.704;2023-05-07T03:39:55;2.80;;;1.98;;
52734;SDS011;38631;47.572;10.704;2023-05-07T03:42:21;3.40;;;2.17;;
52734;SDS011;38631;47.572;10.704;2023-05-07T03:44:46;3.15;;;1.95;;
52734;SDS011;38631;47.572;10.704;2023-05-07T03:47:11;2.78;;;2.00;;
52734;SDS011;38631;47.572;10.704;2023-05-07T03:49:38;2.47;;;1.90;;
52734;SDS011;38631;47.572;10.704;2023-05-07T03:52:03;3.38;;;1.90;;
52734;SDS011;38631;47.572;10.704;2023-05-07T03:54:29;2.15;;;1.70;;
52734;SDS011;38631;47.572;10.704;2023-05-07T03:56:55;2.15;;;1.63;;
52734;SDS011;38631;47.572;10.704;2023-05-07T03:59:21;2.80;;;1.70;;
52734;SDS011;38631;47.572;10.704;2023-05-07T04:01:47;1.95;;;1.60;;
52734;SDS011;38631;47.572;10.704;2023-05-07T04:04:13;2.47;;;1.92;;
52734;SDS011;38631;47.572;10.704;2023-05-07T04:06:39;3.38;;;2.08;;
52734;SDS011;38631;47.572;10.704;2023-05-07T04:09:05;2.65;;;1.90;;
52734;SDS011;38631;47.572;10.704;2023-05-07T04:11:31;2.90;;;2.08;;
52734;SDS011;38631;47.572;10.704;2023-05-07T04:13:56;2.50;;;1.70;;
52734;SDS011;38631;47.572;10.704;2023-05-07T04:16:22;2.38;;;1.80;;
52734;SDS011;38631;47.572;10.704;2023-05-07T04:18:47;2.33;;;1.58;;
52734;SDS011;38631;47.572;10.704;2023-05-07T04:21:16;2.55;;;1.85;;
52734;SDS011;38631;47.572;10.704;2023-05-07T04:23:43;2.60;;;1.77;;
52734;SDS011;38631;47.572;10.704;2023-05-07T04:26:08;2.22;;;1.85;;
52734;SDS011;38631;47.572;10.704;2023-05-07T04:28:34;2.08;;;1.60;;
52734;SDS011;38631;47.572;10.704;2023-05-07T04:31:00;3.28;;;1.98;;
52734;SDS011;38631;47.572;10.704;2023-05-07T04:33:25;2.78;;;1.88;;
52734;SDS011;38631;47.572;10.704;2023-05-07T04:35:50;2.53;;;1.88;;
52734;SDS011;38631;47.572;10.704;2023-05-07T04:38:16;2.00;;;1.80;;
52734;SDS011;38631;47.572;10.704;2023-05-07T04:40:43;3.20;;;1.88;;
52734;SDS011;38631;47.572;10.704;2023-05-07T04:43:08;2.20;;;1.90;;
52734;SDS011;38631;47.572;10.704;2023-05-07T04:45:34;2.60;;;1.92;;
52734;SDS011;38631;47.572;10.704;2023-05-07T04:48:00;2.97;;;2.00;;
52734;SDS011;38631;47.572;10.704;2023-05-07T04:50:26;4.25;;;2.10;;
52734;SDS011;38631;47.572;10.704;2023-05-07T04:52:51;2.38;;;2.17;;
52734;SDS011;38631;47.572;10.704;2023-05-07T04:55:16;3.08;;;2.00;;
52734;SDS011;38631;47.572;10.704;2023-05-07T04:57:42;2.92;;;2.10;;
52734;SDS011;38631;47.572;10.704;2023-05-07T05:00:07;3.55;;;1.80;;
52734;SDS011;38631;47.572;10.704;2023-05-07T05:02:34;2.25;;;2.00;;
52734;SDS011;38631;47.572;10.704;2023-05-07T05:05:00;2.65;;;2.00;;
52734;SDS011;38631;47.572;10.704;2023-05-07T05:07:27;2.70;;;2.22;;
52734;SDS011;38631;47.572;10.704;2023-05-07T05:09:52;2.75;;;1.95;;
52734;SDS011;38631;47.572;10.704;2023-05-07T05:12:17;2.88;;;2.08;;
52734;SDS011;38631;47.572;10.704;2023-05-07T05:14:43;2.75;;;1.58;;
52734;SDS011;38631;47.572;10.704;2023-05-07T05:17:09;1.95;;;1.70;;
52734;SDS011;38631;47.572;10.704;2023-05-07T05:19:34;2.65;;;1.30;;
52734;SDS011;38631;47.572;10.704;2023-05-07T05:21:59;2.13;;;1.63;;
52734;SDS011;38631;47.572;10.704;2023-05-07T05:24:26;2.05;;;1.42;;
52734;SDS011;38631;47.572;10.704;2023-05-07T05:26:52;2.40;;;1.40;;
52734;SDS011;38631;47.572;10.704;2023-05-07T05:29:18;2.08;;;1.50;;
52734;SDS011;38631;47.572;10.704;2023-05-07T05:31:43;2.38;;;1.70;;
52734;SDS011;38631;47.572;10.704;2023-05-07T05:34:09;2.65;;;1.90;;
52734;SDS011;38631;47.572;10.704;2023-05-07T05:36:34;2.22;;;1.60;;
52734;SDS011;38631;47.572;10.704;2023-05-07T05:38:59;2.00;;;1.58;;
52734;SDS011;38631;47.572;10.704;2023-05-07T05:41:25;3.03;;;1.77;;
52734;SDS011;38631;47.572;10.704;2023-05-07T05:43:50;1.92;;;1.48;;
52734;SDS011;38631;47.572;10.704;2023-05-07T05:46:15;2.47;;;1.83;;
52734;SDS011;38631;47.572;10.704;2023-05-07T05:48:41;2.05;;;1.77;;
52734;SDS011;38631;47.572;10.704;2023-05-07T05:51:06;2.40;;;2.10;;
52734;SDS011;38631;47.572;10.704;2023-05-07T05:53:32;2.03;;;1.50;;
52734;SDS011;38631;47.572;10.704;2023-05-07T05:55:57;1.70;;;1.40;;
52734;SDS011;38631;47.572;10.704;2023-05-07T05:58:23;2.22;;;1.60;;
52734;SDS011;38631;47.572;10.704;2023-05-07T06:00:48;1.50;;;1.35;;
52734;SDS011;38631;47.572;10.704;2023-05-07T06:03:16;1.25;;;1.10;;
52734;SDS011;38631;47.572;10.704;2023-05-07T06:05:41;3.38;;;1.83;;
52734;SDS011;38631;47.572;10.704;2023-05-07T06:08:07;2.03;;;1.65;;
52734;SDS011;38631;47.572;10.704;2023-05-07T06:10:32;2.28;;;1.60;;
52734;SDS011;38631;47.572;10.704;2023-05-07T06:12:58;3.05;;;1.60;;
52734;SDS011;38631;47.572;10.704;2023-05-07T06:15:23;3.05;;;2.10;;
52734;SDS011;38631;47.572;10.704;2023-05-07T06:17:48;1.90;;;1.63;;
52734;SDS011;38631;47.572;10.704;2023-05-07T06:20:14;1.58;;;1.27;;
52734;SDS011;38631;47.572;10.704;2023-05-07T06:22:39;1.17;;;1.00;;
52734;SDS011;38631;47.572;10.704;2023-05-07T06:25:05;1.67;;;1.10;;
52734;SDS011;38631;47.572;10.704;2023-05-07T06:27:30;2.33;;;1.20;;
52734;SDS011;38631;47.572;10.704;2023-05-07T06:29:56;2.08;;;1.10;;
52734;SDS011;38631;47.572;10.704;2023-05-07T06:32:21;2.00;;;1.30;;
52734;SDS011;38631;47.572;10.704;2023-05-07T06:34:46;1.65;;;1.30;;
52734;SDS011;38631;47.572;10.704;2023-05-07T06:37:12;1.50;;;1.20;;
52734;SDS011;38631;47.572;10.704;2023-05-07T06:39:37;2.72;;;1.15;;
52734;SDS011;38631;47.572;10.704;2023-05-07T06:42:02;1.67;;;1.30;;
52734;SDS011;38631;47.572;10.704;2023-05-07T06:44:29;2.33;;;1.63;;
52734;SDS011;38631;47.572;10.704;2023-05-07T06:46:55;1.67;;;1.30;;
52734;SDS011;38631;47.572;10.704;2023-05-07T06:49:20;1.65;;;1.38;;
52734;SDS011;38631;47.572;10.704;2023-05-07T06:51:46;2.00;;;1.10;;
52734;SDS011;38631;47.572;10.704;2023-05-07T06:54:11;1.83;;;1.35;;
52734;SDS011;38631;47.572;10.704;2023-05-07T06:56:36;1.98;;;1.27;;
52734;SDS011;38631;47.572;10.704;2023-05-07T06:59:02;2.00;;;1.30;;
52734;SDS011;38631;47.572;10.704;2023-05-07T07:01:28;1.65;;;1.25;;
52734;SDS011;38631;47.572;10.704;2023-05-07T07:03:54;2.78;;;1.48;;
52734;SDS011;38631;47.572;10.704;2023-05-07T07:06:19;1.67;;;1.27;;
52734;SDS011;38631;47.572;10.704;2023-05-07T07:08:45;1.73;;;1.42;;
52734;SDS011;38631;47.572;10.704;2023-05-07T07:11:10;2.42;;;1.20;;
52734;SDS011;38631;47.572;10.704;2023-05-07T07:13:36;1.25;;;0.90;;
52734;SDS011;38631;47.572;10.704;2023-05-07T07:16:01;2.13;;;1.38;;
52734;SDS011;38631;47.572;10.704;2023-05-07T07:18:27;1.98;;;1.77;;
52734;SDS011;38631;47.572;10.704;2023-05-07T07:20:52;2.75;;;1.30;;
52734;SDS011;38631;47.572;10.704;2023-05-07T07:23:18;2.13;;;1.45;;
52734;SDS011;38631;47.572;10.704;2023-05-07T07:25:43;2.60;;;1.45;;
52734;SDS011;38631;47.572;10.704;2023-05-07T07:28:09;1.45;;;1.27;;
52734;SDS011;38631;47.572;10.704;2023-05-07T07:30:35;1.77;;;1.30;;
52734;SDS011;38631;47.572;10.704;2023-05-07T07:33:01;2.38;;;1.45;;
52734;SDS011;38631;47.572;10.704;2023-05-07T07:35:36;1.58;;;1.25;;
52734;SDS011;38631;47.572;10.704;2023-05-07T07:38:02;2.65;;;1.25;;
52734;SDS011;38631;47.572;10.704;2023-05-07T07:40:27;2.80;;;1.90;;
52734;SDS011;38631;47.572;10.704;2023-05-07T07:42:53;1.38;;;1.23;;
52734;SDS011;38631;47.572;10.704;2023-05-07T07:45:19;1.80;;;1.35;;
52734;SDS011;38631;47.572;10.704;2023-05-07T07:47:45;2.15;;;1.23;;
52734;SDS011;38631;47.572;10.704;2023-05-07T07:50:10;1.88;;;1.50;;
52734;SDS011;38631;47.572;10.704;2023-05-07T07:52:36;1.92;;;1.48;;
52734;SDS011;38631;47.572;10.704;2023-05-07T07:55:01;1.25;;;1.15;;
52734;SDS011;38631;47.572;10.704;2023-05-07T07:57:27;1.50;;;1.17;;
52734;SDS011;38631;47.572;10.704;2023-05-07T07:59:53;2.22;;;1.55;;
52734;SDS011;38631;47.572;10.704;2023-05-07T08:02:18;1.85;;;1.35;;
52734;SDS011;38631;47.572;10.704;2023-05-07T08:04:44;2.63;;;1.55;;
52734;SDS011;38631;47.572;10.704;2023-05-07T08:07:10;2.22;;;1.80;;
52734;SDS011;38631;47.572;10.704;2023-05-07T08:09:36;1.95;;;1.30;;
52734;SDS011;38631;47.572;10.704;2023-05-07T08:12:02;1.33;;;1.20;;
52734;SDS011;38631;47.572;10.704;2023-05-07T08:14:28;1.70;;;1.40;;
52734;SDS011;38631;47.572;10.704;2023-05-07T08:16:54;1.48;;;1.17;;
52734;SDS011;38631;47.572;10.704;2023-05-07T08:19:19;2.13;;;1.42;;
52734;SDS011;38631;47.572;10.704;2023-05-07T08:21:47;1.70;;;1.30;;
52734;SDS011;38631;47.572;10.704;2023-05-07T08:24:13;1.77;;;1.33;;
52734;SDS011;38631;47.572;10.704;2023-05-07T08:26:41;1.90;;;1.33;;
52734;SDS011;38631;47.572;10.704;2023-05-07T08:29:08;1.67;;;1.50;;
52734;SDS011;38631;47.572;10.704;2023-05-07T08:31:34;2.00;;;1.40;;
52734;SDS011;38631;47.572;10.704;2023-05-07T08:33:59;1.80;;;1.40;;
52734;SDS011;38631;47.572;10.704;2023-05-07T08:36:25;1.90;;;1.65;;
52734;SDS011;38631;47.572;10.704;2023-05-07T08:38:50;1.40;;;1.10;;
52734;SDS011;38631;47.572;10.704;2023-05-07T08:41:16;2.05;;;1.40;;
52734;SDS011;38631;47.572;10.704;2023-05-07T08:43:42;1.38;;;1.20;;
52734;SDS011;38631;47.572;10.704;2023-05-07T08:46:18;2.05;;;1.30;;
52734;SDS011;38631;47.572;10.704;2023-05-07T08:48:48;1.52;;;1.17;;
52734;SDS011;38631;47.572;10.704;2023-05-07T08:51:15;1.52;;;1.20;;
52734;SDS011;38631;47.572;10.704;2023-05-07T08:53:42;2.22;;;1.27;;
52734;SDS011;38631;47.572;10.704;2023-05-07T08:56:08;2.35;;;1.30;;
52734;SDS011;38631;47.572;10.704;2023-05-07T08:58:34;2.78;;;1.20;;
52734;SDS011;38631;47.572;10.704;2023-05-07T09:01:06;2.90;;;1.60;;
52734;SDS011;38631;47.572;10.704;2023-05-07T09:03:32;1.30;;;1.00;;
52734;SDS011;38631;47.572;10.704;2023-05-07T09:05:58;1.60;;;0.98;;
52734;SDS011;38631;47.572;10.704;2023-05-07T09:08:26;1.73;;;1.10;;
52734;SDS011;38631;47.572;10.704;2023-05-07T09:10:52;2.13;;;1.00;;
52734;SDS011;38631;47.572;10.704;2023-05-07T09:13:18;1.30;;;0.90;;
52734;SDS011;38631;47.572;10.704;2023-05-07T09:15:44;1.33;;;0.88;;
52734;SDS011;38631;47.572;10.704;2023-05-07T09:18:10;2.55;;;1.20;;
52734;SDS011;38631;47.572;10.704;2023-05-07T09:20:39;1.27;;;0.93;;
52734;SDS011;38631;47.572;10.704;2023-05-07T09:23:05;1.67;;;1.20;;
52734;SDS011;38631;47.572;10.704;2023-05-07T09:25:32;1.35;;;1.13;;
52734;SDS011;38631;47.572;10.704;2023-05-07T09:27:59;1.40;;;1.00;;
52734;SDS011;38631;47.572;10.704;2023-05-07T09:30:32;1.67;;;1.20;;
52734;SDS011;38631;47.572;10.704;2023-05-07T09:32:58;1.73;;;1.30;;
52734;SDS011;38631;47.572;10.704;2023-05-07T09:35:25;2.10;;;1.25;;
52734;SDS011;38631;47.572;10.704;2023-05-07T09:37:52;1.55;;;1.15;;
52734;SDS011;38631;47.572;10.704;2023-05-07T09:40:22;2.20;;;1.20;;
52734;SDS011;38631;47.572;10.704;2023-05-07T09:42:54;1.50;;;1.05;;
52734;SDS011;38631;47.572;10.704;2023-05-07T09:45:29;1.88;;;1.38;;
52734;SDS011;38631;47.572;10.704;2023-05-07T09:47:55;1.45;;;1.00;;
52734;SDS011;38631;47.572;10.704;2023-05-07T09:50:25;1.88;;;1.00;;
52734;SDS011;38631;47.572;10.704;2023-05-07T09:52:53;1.10;;;0.90;;
52734;SDS011;38631;47.572;10.704;2023-05-07T09:55:20;0.93;;;0.75;;
52734;SDS011;38631;47.572;10.704;2023-05-07T09:57:46;1.95;;;1.10;;
52734;SDS011;38631;47.572;10.704;2023-05-07T10:00:15;1.38;;;1.10;;
52734;SDS011;38631;47.572;10.704;2023-05-07T10:02:46;1.48;;;1.00;;
52734;SDS011;38631;47.572;10.704;2023-05-07T10:05:14;1.23;;;1.10;;
52734;SDS011;38631;47.572;10.704;2023-05-07T10:07:40;1.50;;;1.13;;
52734;SDS011;38631;47.572;10.704;2023-05-07T10:10:06;1.67;;;1.08;;
52734;SDS011;38631;47.572;10.704;2023-05-07T10:12:32;1.23;;;1.10;;
52734;SDS011;38631;47.572;10.704;2023-05-07T10:15:04;2.25;;;1.10;;
52734;SDS011;38631;47.572;10.704;2023-05-07T10:17:34;1.30;;;1.00;;
52734;SDS011;38631;47.572;10.704;2023-05-07T10:20:00;1.25;;;0.90;;
52734;SDS011;38631;47.572;10.704;2023-05-07T10:22:26;1.65;;;0.70;;
52734;SDS011;38631;47.572;10.704;2023-05-07T10:24:53;1.00;;;0.70;;
52734;SDS011;38631;47.572;10.704;2023-05-07T10:27:23;1.40;;;0.93;;
52734;SDS011;38631;47.572;10.704;2023-05-07T10:32:39;1.02;;;0.85;;
52734;SDS011;38631;47.572;10.704;2023-05-07T10:35:14;1.13;;;0.80;;
52734;SDS011;38631;47.572;10.704;2023-05-07T10:37:43;1.02;;;0.80;;
52734;SDS011;38631;47.572;10.704;2023-05-07T10:40:10;2.00;;;0.95;;
52734;SDS011;38631;47.572;10.704;2023-05-07T10:42:36;1.00;;;0.82;;
52734;SDS011;38631;47.572;10.704;2023-05-07T10:45:15;2.53;;;0.98;;
52734;SDS011;38631;47.572;10.704;2023-05-07T10:50:33;1.08;;;0.85;;
52734;SDS011;38631;47.572;10.704;2023-05-07T10:55:43;1.30;;;0.70;;
52734;SDS011;38631;47.572;10.704;2023-05-07T11:00:46;1.13;;;0.70;;
52734;SDS011;38631;47.572;10.704;2023-05-07T11:03:11;1.48;;;0.80;;
52734;SDS011;38631;47.572;10.704;2023-05-07T11:05:38;1.13;;;0.70;;
52734;SDS011;38631;47.572;10.704;2023-05-07T11:08:04;1.52;;;0.70;;
52734;SDS011;38631;47.572;10.704;2023-05-07T11:10:52;1.58;;;0.98;;
52734;SDS011;38631;47.572;10.704;2023-05-07T11:13:17;2.88;;;0.90;;
52734;SDS011;38631;47.572;10.704;2023-05-07T11:15:47;1.23;;;0.70;;
52734;SDS011;38631;47.572;10.704;2023-05-07T11:18:15;1.55;;;0.82;;
52734;SDS011;38631;47.572;10.704;2023-05-07T11:26:14;0.50;;;0.45;;
52734;SDS011;38631;47.572;10.704;2023-05-07T11:28:41;0.52;;;0.47;;
52734;SDS011;38631;47.572;10.704;2023-05-07T11:31:08;0.50;;;0.30;;
52734;SDS011;38631;47.572;10.704;2023-05-07T11:33:35;1.77;;;0.90;;
52734;SDS011;38631;47.572;10.704;2023-05-07T11:36:01;1.15;;;0.50;;
52734;SDS011;38631;47.572;10.704;2023-05-07T11:38:28;1.30;;;0.80;;
52734;SDS011;38631;47.572;10.704;2023-05-07T11:40:55;2.40;;;0.40;;
52734;SDS011;38631;47.572;10.704;2023-05-07T11:43:21;1.15;;;0.60;;
52734;SDS011;38631;47.572;10.704;2023-05-07T11:45:47;1.13;;;0.60;;
52734;SDS011;38631;47.572;10.704;2023-05-07T11:48:14;0.88;;;0.52;;
52734;SDS011;38631;47.572;10.704;2023-05-07T11:51:00;1.70;;;0.60;;
52734;SDS011;38631;47.572;10.704;2023-05-07T11:53:27;0.52;;;0.43;;
52734;SDS011;38631;47.572;10.704;2023-05-07T11:55:59;0.80;;;0.40;;
52734;SDS011;38631;47.572;10.704;2023-05-07T11:58:25;1.08;;;0.40;;
52734;SDS011;38631;47.572;10.704;2023-05-07T12:00:51;0.93;;;0.45;;
52734;SDS011;38631;47.572;10.704;2023-05-07T12:03:17;0.77;;;0.50;;
52734;SDS011;38631;47.572;10.704;2023-05-07T12:05:43;1.10;;;0.25;;
52734;SDS011;38631;47.572;10.704;2023-05-07T12:08:13;0.73;;;0.45;;
52734;SDS011;38631;47.572;10.704;2023-05-07T12:10:48;1.10;;;0.40;;
52734;SDS011;38631;47.572;10.704;2023-05-07T12:13:16;1.33;;;0.63;;
52734;SDS011;38631;47.572;10.704;2023-05-07T12:15:51;1.67;;;0.70;;
52734;SDS011;38631;47.572;10.704;2023-05-07T12:18:21;2.85;;;0.90;;
52734;SDS011;38631;47.572;10.704;2023-05-07T12:20:48;3.28;;;0.80;;
52734;SDS011;38631;47.572;10.704;2023-05-07T12:23:14;1.65;;;0.90;;
52734;SDS011;38631;47.572;10.704;2023-05-07T12:25:42;1.27;;;0.80;;
52734;SDS011;38631;47.572;10.704;2023-05-07T12:28:15;1.48;;;0.85;;
52734;SDS011;38631;47.572;10.704;2023-05-07T12:30:43;1.25;;;0.75;;
52734;SDS011;38631;47.572;10.704;2023-05-07T12:33:09;1.92;;;1.20;;
52734;SDS011;38631;47.572;10.704;2023-05-07T12:35:42;2.63;;;0.90;;
52734;SDS011;38631;47.572;10.704;2023-05-07T12:38:08;1.35;;;0.85;;
52734;SDS011;38631;47.572;10.704;2023-05-07T12:40:48;1.05;;;0.73;;
52734;SDS011;38631;47.572;10.704;2023-05-07T12:43:19;1.42;;;0.60;;
52734;SDS011;38631;47.572;10.704;2023-05-07T12:45:46;1.17;;;0.60;;
52734;SDS011;38631;47.572;10.704;2023-05-07T12:48:13;1.77;;;0.77;;
52734;SDS011;38631;47.572;10.704;2023-05-07T12:50:39;2.03;;;0.50;;
52734;SDS011;38631;47.572;10.704;2023-05-07T12:53:05;1.05;;;0.65;;
52734;SDS011;38631;47.572;10.704;2023-05-07T12:55:39;1.20;;;0.70;;
52734;SDS011;38631;47.572;10.704;2023-05-07T12:58:06;0.70;;;0.40;;
52734;SDS011;38631;47.572;10.704;2023-05-07T13:00:35;0.93;;;0.63;;
52734;SDS011;38631;47.572;10.704;2023-05-07T13:03:02;1.30;;;0.80;;
52734;SDS011;38631;47.572;10.704;2023-05-07T13:05:27;2.25;;;0.95;;
52734;SDS011;38631;47.572;10.704;2023-05-07T13:07:53;1.80;;;1.10;;
52734;SDS011;38631;47.572;10.704;2023-05-07T13:10:19;2.17;;;0.90;;
52734;SDS011;38631;47.572;10.704;2023-05-07T13:12:47;0.77;;;0.50;;
52734;SDS011;38631;47.572;10.704;2023-05-07T13:15:12;0.80;;;0.38;;
52734;SDS011;38631;47.572;10.704;2023-05-07T13:17:38;0.60;;;0.30;;
52734;SDS011;38631;47.572;10.704;2023-05-07T13:20:04;0.52;;;0.43;;
52734;SDS011;38631;47.572;10.704;2023-05-07T13:22:31;0.50;;;0.30;;
52734;SDS011;38631;47.572;10.704;2023-05-07T13:24:57;0.60;;;0.40;;
52734;SDS011;38631;47.572;10.704;2023-05-07T13:27:22;0.82;;;0.40;;
52734;SDS011;38631;47.572;10.704;2023-05-07T13:29:47;0.63;;;0.40;;
52734;SDS011;38631;47.572;10.704;2023-05-07T13:32:13;0.77;;;0.47;;
52734;SDS011;38631;47.572;10.704;2023-05-07T13:34:38;1.05;;;0.47;;
52734;SDS011;38631;47.572;10.704;2023-05-07T13:37:04;1.52;;;0.55;;
52734;SDS011;38631;47.572;10.704;2023-05-07T13:39:30;0.93;;;0.60;;
52734;SDS011;38631;47.572;10.704;2023-05-07T13:41:56;1.02;;;0.57;;
52734;SDS011;38631;47.572;10.704;2023-05-07T13:44:22;0.68;;;0.45;;
52734;SDS011;38631;47.572;10.704;2023-05-07T13:46:47;1.00;;;0.68;;
52734;SDS011;38631;47.572;10.704;2023-05-07T13:49:13;0.88;;;0.50;;
52734;SDS011;38631;47.572;10.704;2023-05-07T13:51:38;0.98;;;0.77;;
52734;SDS011;38631;47.572;10.704;2023-05-07T13:54:04;1.33;;;0.73;;
52734;SDS011;38631;47.572;10.704;2023-05-07T13:56:29;1.15;;;0.70;;
52734;SDS011;38631;47.572;10.704;2023-05-07T13:58:57;1.45;;;0.73;;
52734;SDS011;38631;47.572;10.704;2023-05-07T14:01:23;1.23;;;0.95;;
52734;SDS011;38631;47.572;10.704;2023-05-07T14:03:48;1.35;;;0.80;;
52734;SDS011;38631;47.572;10.704;2023-05-07T14:06:14;2.47;;;1.02;;
52734;SDS011;38631;47.572;10.704;2023-05-07T14:08:40;1.75;;;1.00;;
52734;SDS011;38631;47.572;10.704;2023-05-07T14:11:05;0.93;;;0.70;;
52734;SDS011;38631;47.572;10.704;2023-05-07T14:13:34;1.10;;;0.80;;
52734;SDS011;38631;47.572;10.704;2023-05-07T14:15:59;1.83;;;1.00;;
52734;SDS011;38631;47.572;10.704;2023-05-07T14:18:25;1.88;;;0.98;;
52734;SDS011;38631;47.572;10.704;2023-05-07T14:20:51;1.83;;;0.98;;
52734;SDS011;38631;47.572;10.704;2023-05-07T14:23:16;1.15;;;0.75;;
52734;SDS011;38631;47.572;10.704;2023-05-07T14:25:44;1.55;;;0.90;;
52734;SDS011;38631;47.572;10.704;2023-05-07T14:28:19;2.28;;;1.10;;
52734;SDS011;38631;47.572;10.704;2023-05-07T14:30:46;1.35;;;0.90;;
52734;SDS011;38631;47.572;10.704;2023-05-07T14:33:12;2.58;;;1.00;;
52734;SDS011;38631;47.572;10.704;2023-05-07T14:38:19;1.63;;;0.90;;
52734;SDS011;38631;47.572;10.704;2023-05-07T14:40:47;2.47;;;1.00;;
52734;SDS011;38631;47.572;10.704;2023-05-07T14:43:12;1.67;;;0.98;;
52734;SDS011;38631;47.572;10.704;2023-05-07T14:45:38;0.90;;;0.60;;
52734;SDS011;38631;47.572;10.704;2023-05-07T14:48:03;1.15;;;0.70;;